Cenka — TCTG5 — position and weather

sailwx.info

Track history (hours):
 
Tides and Currents Weather Stations Pressure Air Temp Water Temp Dewpoint Dewpoint Depression Visibility Wind Speed Wind Dir Waves Ship Positions

Cenka

Last reported at 2016-Sep-10 01:33 UTC. Time now 2016-Dec-07 08:42 UTC.
Position N 46°05' E 030°50'.
Warning: this ship's position is months out of date.

Length 150 m; draft 4.6 m.

Type: Passenger vessel. MMSI: 271002610.

Date/timePositionNaut miles runAvg speedWind from/ knotsBaromVisibWave heightAir tempDewpointWater temp
2016-Sep-10 01:33N 46°05' E 030°50'  
2016-Sep-06 02:28N 45°23' E 031°01'8 8.5
2016-Sep-06 01:33N 45°30' E 030°60'9 8.6
2016-Sep-06 00:31N 45°39' E 030°58'9 8.9
2016-Sep-05 23:33N 45°48' E 030°57'9 8.8
2016-Sep-05 22:33N 45°56' E 030°55'9 8.6
2016-Sep-05 21:33N 46°05' E 030°51'9 8.6
2016-Sep-05 20:31N 46°13' E 030°47'8 7.8
2016-Sep-05 19:32N 46°19' E 030°40'3 0.2
2016-Sep-05 04:33N 46°19' E 030°44'5 5.4
2016-Sep-05 03:33N 46°14' E 030°47'9 8.9
2016-Sep-05 02:33N 46°05' E 030°50'9 8.9
2016-Sep-05 01:33N 45°57' E 030°53'9 8.9
2016-Sep-05 00:33N 45°48' E 030°55'9 8.8
2016-Sep-04 23:33N 45°39' E 030°57'9 8.8
2016-Sep-04 22:33N 45°30' E 030°60'10 8.6
2016-Sep-04 21:21N 45°20' E 031°01'  
2016-Aug-31 19:16N 46°20' E 030°40'  
Track history (hours):
 
Tides and Currents Weather Stations Pressure Air Temp Water Temp Dewpoint Dewpoint Depression Visibility Wind Speed Wind Dir Waves Ship Positions

Cenka

Last reported at 2016-Sep-10 01:33 UTC. Time now 2016-Dec-07 08:42 UTC.
Position N 46°05' E 030°50'.
Warning: this ship's position is months out of date.

Length 150 m; draft 4.6 m.

Type: Passenger vessel. MMSI: 271002610.

Date/timePositionNaut miles runAvg speedWind from/ knotsBaromVisibWave heightAir tempDewpointWater temp
2016-Sep-10 01:33N 46°05' E 030°50'  
2016-Sep-06 02:28N 45°23' E 031°01'8 8.5
2016-Sep-06 01:33N 45°30' E 030°60'9 8.6
2016-Sep-06 00:31N 45°39' E 030°58'9 8.9
2016-Sep-05 23:33N 45°48' E 030°57'9 8.8
2016-Sep-05 22:33N 45°56' E 030°55'9 8.6
2016-Sep-05 21:33N 46°05' E 030°51'9 8.6
2016-Sep-05 20:31N 46°13' E 030°47'8 7.8
2016-Sep-05 19:32N 46°19' E 030°40'3 0.2
2016-Sep-05 04:33N 46°19' E 030°44'5 5.4
2016-Sep-05 03:33N 46°14' E 030°47'9 8.9
2016-Sep-05 02:33N 46°05' E 030°50'9 8.9
2016-Sep-05 01:33N 45°57' E 030°53'9 8.9
2016-Sep-05 00:33N 45°48' E 030°55'9 8.8
2016-Sep-04 23:33N 45°39' E 030°57'9 8.8
2016-Sep-04 22:33N 45°30' E 030°60'10 8.6
2016-Sep-04 21:21N 45°20' E 031°01'  
2016-Aug-31 19:16N 46°20' E 030°40'  

Dump ship's entire track history